Hlavní strana
METAR-TAF:

METAR-TAF

Letiště :

Letiště Larnaka

Larnaka, Kypr

zeměpisná šířka: 34-53N, zeměpisná délka: 033-38E, výška: 2 m

Aktuální stav počasí

Zpráva byla vytvořena před 26 minutami, v 18:00 UTC
Jihozápadní vítr 10 kt
Teplota 27°C
Vlhkost vzduchu 89%
Tlak 1004 hPa
Viditelnost 10 km a více
Skoro jasno ve výšce 5000 ft

METAR: LCLK 201800Z 23010KT 9999 FEW050 27/25 Q1004 NOSIG

Čas: 21:26 (18:26 UTC)

Předpověď počasí

Zpráva byla vytvořena před 56 minutami, v 17:30 UTC
Předpověď platná od 20 v 18 UTC do 21 v 18 UTC
Jihozápadní vítr 12 kt
Viditelnost 10 km a více
Skoro jasno ve výšce 3000 ft
Změna
od 20 v 18 UTC do 20 v 21 UTC
Západní vítr 6 kt
Pravděpodobnost 30%
od 20 v 22 UTC do 21 v 05 UTC
Viditelnost: 5000 m
Oblačno až skoro zataženo ve výšce 800 ft
kouřmo
Změna
od 21 v 07 UTC do 21 v 10 UTC
Jihojihozápadní vítr 16 kt

TAF: LCLK 201730Z 2018/2118 22012KT 9999 FEW030 BECMG 2018/2021 28006KT PROB30 2022/2105 5000 BR BKN008 BECMG 2107/2110 21016KT

Stav a předpovědi počasí z více než 4 000 letišť (zprávy METAR a TAF).

Červené a žluté tečky na mapě představují dostupné meteorologické stanice.

Když kurzor umístíte na tečku, zobrazí se název stanice.

Pak kliknutím zobrazíte stav a předpověď počasí.

Chcete-li změnit mapu, kliknutím na zelené tlačítko se znaménkem +mapu přiblížíte, kliknutím na zelené tlačítko se znaménkem – mapu oddálíte a kliknutím na zelené šipky přejdete na sousední mapy.


METAR-TAF: